createdAt,value
2023-08-25T00:01:59.343Z,60.77
2023-08-25T00:04:26.159Z,61.24
2023-08-25T00:06:52.891Z,61.79
2023-08-25T00:09:19.711Z,61.84
2023-08-25T00:11:46.474Z,62.19
2023-08-25T00:14:13.264Z,62.49
2023-08-25T00:16:39.969Z,62.96
2023-08-25T00:19:06.683Z,63.36
2023-08-25T00:21:33.458Z,63.21
2023-08-25T00:24:00.154Z,63.77
2023-08-25T00:26:26.865Z,63.92
2023-08-25T00:28:53.558Z,63.56
2023-08-25T00:31:20.367Z,64.78
2023-08-25T00:33:50.975Z,64.94
2023-08-25T00:36:18.308Z,64.59
2023-08-25T00:38:45.059Z,64.18
2023-08-25T00:41:11.914Z,65.42
2023-08-25T00:43:40.408Z,65.24
2023-08-25T00:46:07.319Z,64.74
2023-08-25T00:48:34.604Z,64.52
2023-08-25T00:51:01.381Z,63.98
2023-08-25T00:53:28.191Z,64.28
2023-08-25T00:55:55.291Z,63.96
2023-08-25T00:58:22.509Z,64.07
2023-08-25T01:00:49.719Z,64.63
2023-08-25T01:03:16.593Z,64.40
2023-08-25T01:05:43.428Z,64.19
2023-08-25T01:08:10.293Z,64.16
2023-08-25T01:10:54.968Z,65.11
2023-08-25T01:13:28.160Z,65.15
2023-08-25T01:15:55.941Z,65.31
2023-08-25T01:18:30.097Z,65.05
2023-08-25T01:20:57.207Z,64.80
2023-08-25T01:23:33.358Z,64.69
2023-08-25T01:26:00.347Z,64.54
2023-08-25T01:28:27.814Z,64.77
2023-08-25T01:30:57.483Z,65.31
2023-08-25T01:33:24.472Z,64.93
2023-08-25T01:36:17.265Z,64.80
2023-08-25T01:38:48.461Z,65.70
2023-08-25T01:41:19.918Z,65.65
2023-08-25T01:43:51.413Z,65.73
2023-08-25T01:46:19.306Z,65.58
2023-08-25T01:48:48.365Z,65.38
2023-08-25T01:51:15.602Z,65.80
2023-08-25T01:53:45.804Z,65.80
2023-08-25T01:56:12.483Z,65.96
2023-08-25T01:58:39.205Z,66.37
2023-08-25T02:01:05.967Z,65.87
2023-08-25T02:03:32.633Z,65.99
2023-08-25T02:05:59.463Z,66.52
2023-08-25T02:08:26.251Z,67.40
2023-08-25T02:10:53.450Z,67.22
2023-08-25T02:13:21.055Z,66.86
2023-08-25T02:15:50.551Z,66.81
2023-08-25T02:18:17.474Z,66.73
2023-08-25T02:20:44.228Z,67.07
2023-08-25T02:23:10.971Z,66.52
2023-08-25T02:25:37.817Z,67.07
2023-08-25T02:28:04.807Z,66.73
2023-08-25T02:30:31.919Z,67.12
2023-08-25T02:33:00.188Z,67.56
2023-08-25T02:35:26.885Z,67.18
2023-08-25T02:38:12.239Z,67.46
2023-08-25T02:40:39.254Z,66.46
2023-08-25T02:43:06.816Z,66.56
2023-08-25T02:45:34.568Z,67.09
2023-08-25T02:48:01.997Z,66.93
2023-08-25T02:50:28.845Z,66.46
2023-08-25T02:52:55.598Z,67.04
2023-08-25T02:55:23.080Z,66.48
2023-08-25T02:57:51.184Z,66.50
2023-08-25T03:00:26.794Z,66.36
2023-08-25T03:02:54.368Z,66.48
2023-08-25T03:05:23.117Z,66.47
2023-08-25T03:07:53.994Z,65.83
2023-08-25T03:10:21.273Z,65.17
2023-08-25T03:12:47.967Z,65.03
2023-08-25T03:15:14.774Z,64.76
2023-08-25T03:17:42.704Z,64.85
2023-08-25T03:20:10.049Z,64.77
2023-08-25T03:22:36.804Z,64.92
2023-08-25T03:25:04.012Z,64.30
2023-08-25T03:27:33.966Z,63.59
2023-08-25T03:30:00.800Z,64.69
2023-08-25T03:32:27.569Z,64.33
2023-08-25T03:34:54.391Z,65.01
2023-08-25T03:37:21.146Z,64.78
2023-08-25T03:39:47.861Z,64.37
2023-08-25T03:42:14.607Z,64.65
2023-08-25T03:44:41.393Z,65.07
2023-08-25T03:47:08.091Z,64.31
2023-08-25T03:49:35.486Z,64.10
2023-08-25T03:52:02.263Z,64.28
2023-08-25T03:54:32.424Z,63.56
2023-08-25T03:56:59.643Z,62.35
2023-08-25T03:59:26.388Z,61.63
2023-08-25T04:01:53.257Z,61.38
2023-08-25T04:04:20.007Z,61.22
2023-08-25T04:06:46.801Z,61.50
2023-08-25T04:09:14.573Z,62.25
2023-08-25T04:11:41.382Z,61.38
2023-08-25T04:14:08.116Z,61.60
2023-08-25T04:16:34.881Z,61.86
2023-08-25T04:19:03.144Z,61.32
2023-08-25T04:21:30.211Z,61.14
2023-08-25T04:23:56.973Z,61.69
2023-08-25T04:26:23.827Z,61.57
2023-08-25T04:28:50.610Z,61.60
2023-08-25T04:31:17.373Z,61.48
2023-08-25T04:33:44.629Z,61.89
2023-08-25T04:36:13.646Z,61.06
2023-08-25T04:38:40.421Z,61.76
2023-08-25T04:41:07.155Z,61.55
2023-08-25T04:43:34.096Z,62.58
2023-08-25T04:46:00.922Z,61.89
2023-08-25T04:48:27.734Z,61.33
2023-08-25T04:50:54.475Z,61.23
2023-08-25T04:53:21.160Z,60.76
2023-08-25T04:55:48.256Z,60.98
2023-08-25T04:58:15.041Z,60.96
2023-08-25T05:00:41.955Z,60.95
2023-08-25T05:03:10.432Z,61.62
2023-08-25T05:05:37.218Z,61.46
2023-08-25T05:08:04.135Z,61.49
2023-08-25T05:10:30.828Z,61.23
2023-08-25T05:12:57.548Z,62.26
2023-08-25T05:15:24.270Z,63.03
2023-08-25T05:17:51.146Z,63.32
2023-08-25T05:20:23.707Z,63.30
2023-08-25T05:22:52.096Z,62.92
2023-08-25T05:25:22.402Z,62.48
2023-08-25T05:27:49.133Z,62.57
2023-08-25T05:30:17.682Z,62.80
2023-08-25T05:32:44.644Z,62.70
2023-08-25T05:35:12.301Z,62.94
2023-08-25T05:37:39.126Z,62.80
2023-08-25T05:40:08.259Z,62.57
2023-08-25T05:42:36.859Z,62.38
2023-08-25T05:45:04.706Z,62.48
2023-08-25T05:47:31.481Z,62.56
2023-08-25T05:49:58.437Z,61.47
2023-08-25T05:52:25.375Z,61.30
2023-08-25T05:54:52.151Z,61.03
2023-08-25T05:57:18.973Z,61.48
2023-08-25T05:59:45.684Z,60.76
2023-08-25T06:02:12.430Z,60.86
2023-08-25T06:04:39.193Z,60.75
2023-08-25T06:07:05.908Z,59.26
2023-08-25T06:09:32.686Z,59.11
2023-08-25T06:12:00.968Z,59.46
2023-08-25T06:14:27.823Z,59.38
2023-08-25T06:16:59.997Z,59.55
2023-08-25T06:19:26.790Z,59.25
2023-08-25T06:21:53.501Z,59.23
2023-08-25T06:24:20.220Z,58.72
2023-08-25T06:26:47.051Z,58.30
2023-08-25T06:29:13.778Z,60.03
2023-08-25T06:31:40.507Z,59.04
2023-08-25T06:34:07.325Z,58.48
2023-08-25T06:36:34.127Z,57.46
2023-08-25T06:39:01.398Z,55.88
2023-08-25T06:41:28.205Z,55.27
2023-08-25T06:43:57.863Z,53.20
2023-08-25T06:46:24.687Z,52.50
2023-08-25T06:48:51.564Z,51.77
2023-08-25T06:51:18.418Z,49.95
2023-08-25T06:53:45.283Z,49.58
2023-08-25T06:56:12.117Z,50.23
2023-08-25T06:58:38.953Z,48.50
2023-08-25T07:01:05.881Z,48.53
2023-08-25T07:03:34.993Z,48.49
2023-08-25T07:06:02.339Z,49.05
2023-08-25T07:08:29.331Z,48.45
2023-08-25T07:10:56.757Z,50.16
2023-08-25T07:13:23.558Z,49.72
2023-08-25T07:15:50.801Z,49.18
2023-08-25T07:18:17.671Z,48.14
2023-08-25T07:20:44.545Z,48.83
2023-08-25T07:23:11.326Z,48.09
2023-08-25T07:25:39.716Z,47.98
2023-08-25T07:28:06.538Z,46.88
2023-08-25T07:30:37.707Z,46.43
2023-08-25T07:33:06.911Z,45.71
2023-08-25T07:35:36.427Z,44.82
2023-08-25T07:38:04.090Z,43.66
2023-08-25T07:40:32.716Z,44.72
2023-08-25T07:43:04.049Z,43.94
2023-08-25T07:45:32.015Z,43.76
2023-08-25T07:48:02.612Z,43.22
2023-08-25T07:50:30.500Z,42.05
2023-08-25T07:52:57.996Z,42.87
2023-08-25T07:55:25.385Z,43.54
2023-08-25T07:57:53.241Z,42.53
2023-08-25T08:00:20.487Z,42.66
2023-08-25T08:02:49.037Z,42.91
2023-08-25T08:05:18.016Z,42.43
2023-08-25T08:07:49.443Z,42.45
2023-08-25T08:10:18.756Z,42.83
2023-08-25T08:12:46.594Z,42.73
2023-08-25T08:15:14.298Z,42.70
2023-08-25T08:17:41.745Z,42.54
2023-08-25T08:20:14.130Z,41.77
2023-08-25T08:22:42.880Z,41.62
2023-08-25T08:25:11.849Z,41.29
2023-08-25T08:27:40.629Z,40.43
2023-08-25T08:30:08.450Z,40.15
2023-08-25T08:32:36.566Z,40.18
2023-08-25T08:35:10.378Z,39.66
2023-08-25T08:37:37.658Z,39.26
2023-08-25T08:40:09.487Z,39.02
2023-08-25T08:42:37.575Z,39.36
2023-08-25T08:45:08.326Z,38.44
2023-08-25T08:47:38.912Z,40.40
2023-08-25T08:50:10.109Z,39.95
2023-08-25T08:52:37.109Z,39.45
2023-08-25T08:55:07.295Z,38.54
2023-08-25T08:57:34.120Z,38.60
2023-08-25T09:00:01.294Z,39.84
2023-08-25T09:02:30.168Z,37.99
2023-08-25T09:05:00.372Z,37.89
2023-08-25T09:07:32.521Z,36.22
2023-08-25T09:10:00.279Z,36.32
2023-08-25T09:12:27.523Z,34.95
2023-08-25T09:14:54.396Z,34.31
2023-08-25T09:17:22.830Z,35.06
2023-08-25T09:19:49.814Z,35.11
2023-08-25T09:22:17.699Z,34.42
2023-08-25T09:24:45.267Z,34.52
2023-08-25T09:27:23.990Z,33.25
2023-08-25T09:30:00.919Z,32.06
2023-08-25T09:32:29.662Z,32.21
2023-08-25T09:34:57.150Z,32.72
2023-08-25T09:37:40.859Z,32.95
2023-08-25T09:40:20.645Z,32.76
2023-08-25T09:42:47.486Z,32.17
2023-08-25T09:45:14.373Z,32.68
2023-08-25T09:47:44.647Z,31.92
2023-08-25T09:50:16.729Z,31.93
2023-08-25T09:52:45.390Z,31.71
2023-08-25T09:55:12.713Z,30.54
2023-08-25T09:57:39.642Z,30.65
2023-08-25T10:00:09.669Z,31.69
2023-08-25T10:02:36.476Z,31.52
2023-08-25T10:05:04.664Z,31.31
2023-08-25T10:07:32.618Z,30.27
2023-08-25T10:09:59.382Z,29.38
2023-08-25T10:12:26.622Z,29.35
2023-08-25T10:14:54.238Z,29.32
2023-08-25T10:17:21.090Z,27.60
2023-08-25T10:19:50.888Z,29.42
2023-08-25T10:22:18.376Z,30.08
2023-08-25T10:24:46.203Z,30.75
2023-08-25T10:27:13.118Z,30.75
2023-08-25T10:29:39.973Z,29.31
2023-08-25T10:32:06.889Z,30.41
2023-08-25T10:34:33.871Z,30.98
2023-08-25T10:37:13.960Z,28.61
2023-08-25T10:40:00.732Z,29.99
2023-08-25T10:42:31.488Z,30.12
2023-08-25T10:45:14.656Z,28.96
2023-08-25T10:47:48.906Z,29.39
2023-08-25T10:50:21.763Z,29.05
2023-08-25T10:52:51.392Z,29.29
2023-08-25T10:55:29.625Z,29.38
2023-08-25T10:58:04.422Z,28.09
2023-08-25T11:00:37.304Z,27.52
2023-08-25T11:03:04.884Z,25.35
2023-08-25T11:05:42.355Z,25.14
2023-08-25T11:08:26.321Z,25.16
2023-08-25T11:11:13.543Z,25.23
2023-08-25T11:13:41.728Z,25.48
2023-08-25T11:16:11.086Z,24.80
2023-08-25T11:18:40.628Z,24.46
2023-08-25T11:21:07.394Z,23.49
2023-08-25T11:23:42.394Z,21.31
2023-08-25T11:26:09.834Z,23.17
2023-08-25T11:28:38.047Z,21.49
2023-08-25T11:31:05.433Z,20.58
2023-08-25T11:33:33.491Z,20.41
2023-08-25T11:36:04.559Z,18.88
2023-08-25T11:38:34.386Z,20.01
2023-08-25T11:41:01.217Z,21.09
2023-08-25T11:43:33.764Z,20.05
2023-08-25T11:46:01.128Z,19.68
2023-08-25T11:48:28.047Z,17.54
2023-08-25T11:50:54.845Z,17.93
2023-08-25T11:53:21.611Z,16.59
2023-08-25T11:56:01.930Z,14.53
2023-08-25T11:58:35.320Z,13.57
2023-08-25T12:01:03.614Z,13.65
2023-08-25T12:03:30.501Z,12.30
2023-08-25T12:05:57.385Z,12.41
2023-08-25T12:08:26.134Z,12.96
2023-08-25T12:10:56.608Z,12.16
2023-08-25T12:13:33.139Z,12.31
2023-08-25T12:16:00.018Z,11.54
2023-08-25T12:18:37.498Z,11.99
2023-08-25T12:21:06.725Z,11.38
2023-08-25T12:23:38.231Z,11.18
2023-08-25T12:26:06.420Z,10.60
2023-08-25T12:28:33.596Z,11.12
2023-08-25T12:31:01.646Z,10.75
2023-08-25T12:33:29.140Z,11.19
2023-08-25T12:35:56.169Z,11.42
2023-08-25T12:38:22.933Z,10.98
2023-08-25T12:40:49.660Z,11.49
2023-08-25T12:43:16.568Z,11.61
2023-08-25T12:45:44.546Z,12.75
2023-08-25T12:48:13.010Z,13.00
2023-08-25T12:50:40.007Z,12.90
2023-08-25T12:53:06.748Z,12.62
2023-08-25T12:55:33.920Z,12.61
2023-08-25T12:58:00.935Z,12.32
2023-08-25T13:00:28.875Z,12.68
2023-08-25T13:02:56.603Z,12.68
2023-08-25T13:05:24.562Z,12.82
2023-08-25T13:07:51.838Z,11.90
2023-08-25T13:10:18.970Z,11.87
2023-08-25T13:12:45.786Z,11.62
2023-08-25T13:15:13.339Z,11.26
2023-08-25T13:17:41.422Z,10.68
2023-08-25T13:20:08.884Z,9.93
2023-08-25T13:22:35.615Z,10.75
2023-08-25T13:25:02.399Z,11.21
2023-08-25T13:27:29.595Z,11.64
2023-08-25T13:29:56.713Z,12.73
2023-08-25T13:32:23.623Z,14.16
2023-08-25T13:34:50.317Z,15.20
2023-08-25T13:37:18.398Z,15.48
2023-08-25T13:39:45.365Z,16.58
2023-08-25T13:42:12.084Z,16.92
2023-08-25T13:44:39.417Z,18.16
2023-08-25T13:47:08.663Z,17.49
2023-08-25T13:49:37.211Z,18.71
2023-08-25T13:52:04.121Z,19.77
2023-08-25T13:54:31.504Z,20.92
2023-08-25T13:56:59.037Z,20.65
2023-08-25T13:59:33.098Z,21.32
2023-08-25T14:02:06.888Z,21.97
2023-08-25T14:04:33.629Z,22.45
2023-08-25T14:07:00.383Z,23.53
2023-08-25T14:09:27.113Z,24.14
2023-08-25T14:11:53.870Z,23.27
2023-08-25T14:14:20.611Z,24.37
2023-08-25T14:16:47.462Z,24.70
2023-08-25T14:19:14.501Z,24.12
2023-08-25T14:21:41.265Z,25.48
2023-08-25T14:24:08.026Z,25.12
2023-08-25T14:26:34.790Z,25.17
2023-08-25T14:29:01.707Z,25.57
2023-08-25T14:31:28.484Z,25.57
2023-08-25T14:33:55.353Z,25.57
2023-08-25T14:36:22.178Z,25.67
2023-08-25T14:38:48.879Z,26.57
2023-08-25T14:41:15.603Z,27.37
2023-08-25T14:43:42.406Z,26.85
2023-08-25T14:46:10.945Z,26.77
2023-08-25T14:48:40.350Z,26.95
2023-08-25T14:51:07.095Z,26.56
2023-08-25T14:53:33.835Z,26.03
2023-08-25T14:56:01.077Z,26.43
2023-08-25T14:58:27.835Z,25.63
2023-08-25T15:00:57.958Z,25.33
2023-08-25T15:03:25.672Z,25.59
2023-08-25T15:05:59.933Z,24.36
2023-08-25T15:08:26.814Z,24.75
2023-08-25T15:10:53.539Z,24.87
2023-08-25T15:13:20.254Z,25.27
2023-08-25T15:15:47.777Z,25.50
2023-08-25T15:18:14.609Z,25.54
2023-08-25T15:20:41.475Z,26.22
2023-08-25T15:23:08.268Z,26.54
2023-08-25T15:25:36.859Z,25.89
2023-08-25T15:28:03.921Z,26.94
2023-08-25T15:30:30.641Z,26.63
2023-08-25T15:32:57.411Z,27.09
2023-08-25T15:35:27.147Z,28.51
2023-08-25T15:37:55.009Z,28.47
2023-08-25T15:40:23.903Z,28.05
2023-08-25T15:42:51.151Z,29.56
2023-08-25T15:45:18.360Z,29.73
2023-08-25T15:47:45.278Z,29.66
2023-08-25T15:50:12.082Z,30.75
2023-08-25T15:52:38.873Z,31.19
2023-08-25T15:55:05.990Z,31.53
2023-08-25T15:57:42.715Z,32.92
2023-08-25T16:00:10.856Z,32.99
2023-08-25T16:02:37.674Z,33.25
2023-08-25T16:05:05.353Z,34.02
2023-08-25T16:07:32.189Z,34.15
2023-08-25T16:10:00.579Z,34.07
2023-08-25T16:12:27.293Z,33.85
2023-08-25T16:14:54.018Z,33.17
2023-08-25T16:17:20.976Z,33.13
2023-08-25T16:19:47.681Z,33.89
2023-08-25T16:22:14.418Z,34.81
2023-08-25T16:24:41.148Z,35.02
2023-08-25T16:27:07.905Z,35.29
2023-08-25T16:29:34.728Z,35.23
2023-08-25T16:32:01.498Z,36.12
2023-08-25T16:34:28.677Z,36.39
2023-08-25T16:36:56.857Z,36.64
2023-08-25T16:39:23.705Z,36.99
2023-08-25T16:41:50.398Z,37.31
2023-08-25T16:44:17.318Z,37.86
2023-08-25T16:46:44.179Z,38.25
2023-08-25T16:49:10.973Z,39.02
2023-08-25T16:51:37.899Z,38.73
2023-08-25T16:54:05.786Z,39.14
2023-08-25T16:56:32.605Z,39.62
2023-08-25T16:58:59.992Z,39.83
2023-08-25T17:01:28.010Z,39.98
2023-08-25T17:03:55.139Z,41.48
2023-08-25T17:06:22.544Z,41.91
2023-08-25T17:08:49.398Z,41.84
2023-08-25T17:11:16.156Z,41.55
2023-08-25T17:13:42.945Z,42.21
2023-08-25T17:16:10.862Z,42.18
2023-08-25T17:18:37.732Z,42.73
2023-08-25T17:21:04.829Z,42.86
2023-08-25T17:23:32.288Z,43.13
2023-08-25T17:25:59.033Z,43.16
2023-08-25T17:28:28.059Z,43.33
2023-08-25T17:31:05.390Z,44.22
2023-08-25T17:33:32.234Z,43.86
2023-08-25T17:36:06.523Z,44.74
2023-08-25T17:38:33.810Z,44.84
2023-08-25T17:41:08.258Z,45.16
2023-08-25T17:43:35.556Z,45.32
2023-08-25T17:46:05.628Z,45.86
2023-08-25T17:48:33.608Z,46.00
2023-08-25T17:51:00.577Z,45.71
2023-08-25T17:53:27.932Z,46.07
2023-08-25T17:55:57.014Z,45.79
2023-08-25T17:58:23.957Z,45.97
2023-08-25T18:01:08.911Z,46.05
2023-08-25T18:03:39.678Z,46.41
2023-08-25T18:06:06.941Z,46.17
2023-08-25T18:08:36.167Z,46.41
2023-08-25T18:11:03.350Z,46.64
2023-08-25T18:13:31.874Z,46.37
2023-08-25T18:15:58.964Z,47.55
2023-08-25T18:18:25.766Z,47.55
2023-08-25T18:21:03.452Z,47.66
2023-08-25T18:23:35.443Z,47.43
2023-08-25T18:26:02.640Z,47.43
2023-08-25T18:28:29.370Z,47.77
2023-08-25T18:31:07.843Z,47.92
2023-08-25T18:33:39.338Z,47.92
2023-08-25T18:36:06.805Z,48.43
2023-08-25T18:38:33.558Z,48.71
2023-08-25T18:41:00.732Z,49.07
2023-08-25T18:43:27.473Z,49.00
2023-08-25T18:45:54.727Z,49.09
2023-08-25T18:48:21.908Z,49.22
2023-08-25T18:50:48.849Z,49.92
2023-08-25T18:53:15.773Z,50.20
2023-08-25T18:55:44.985Z,49.64
2023-08-25T18:58:11.769Z,50.38
2023-08-25T19:00:41.680Z,50.08
2023-08-25T19:03:08.466Z,50.01
2023-08-25T19:05:35.918Z,50.11
2023-08-25T19:08:02.601Z,50.29
2023-08-25T19:10:30.759Z,50.74
2023-08-25T19:12:57.815Z,50.69
2023-08-25T19:15:24.741Z,50.48
2023-08-25T19:17:51.508Z,51.11
2023-08-25T19:20:20.454Z,51.01
2023-08-25T19:22:47.501Z,51.29
2023-08-25T19:25:14.762Z,51.41
2023-08-25T19:27:41.630Z,51.54
2023-08-25T19:30:09.175Z,52.02
2023-08-25T19:32:35.943Z,51.69
2023-08-25T19:35:03.669Z,51.95
2023-08-25T19:37:34.919Z,52.49
2023-08-25T19:40:02.799Z,51.77
2023-08-25T19:42:29.522Z,51.78
2023-08-25T19:44:56.263Z,52.86
2023-08-25T19:47:23.084Z,53.37
2023-08-25T19:49:50.060Z,53.30
2023-08-25T19:52:16.836Z,53.84
2023-08-25T19:54:43.555Z,53.54
2023-08-25T19:57:10.292Z,54.35
2023-08-25T19:59:37.002Z,53.84
2023-08-25T20:02:04.535Z,53.78
2023-08-25T20:04:31.241Z,54.21
2023-08-25T20:06:57.947Z,54.27
2023-08-25T20:09:25.915Z,54.30
2023-08-25T20:11:52.786Z,54.36
2023-08-25T20:14:19.523Z,54.33
2023-08-25T20:16:46.309Z,53.84
2023-08-25T20:19:13.386Z,54.46
2023-08-25T20:21:40.114Z,54.17
2023-08-25T20:24:07.535Z,54.07
2023-08-25T20:26:34.220Z,54.13
2023-08-25T20:29:00.938Z,54.26
2023-08-25T20:31:28.002Z,54.11
2023-08-25T20:33:54.802Z,54.81
2023-08-25T20:36:21.591Z,54.62
2023-08-25T20:38:49.194Z,54.81
2023-08-25T20:41:16.072Z,55.97
2023-08-25T20:43:42.816Z,55.53
2023-08-25T20:46:20.026Z,55.33
2023-08-25T20:48:48.611Z,55.17
2023-08-25T20:51:16.802Z,56.01
2023-08-25T20:53:43.496Z,55.93
2023-08-25T20:56:10.239Z,57.22
2023-08-25T20:58:37.082Z,56.69
2023-08-25T21:01:03.841Z,56.93
2023-08-25T21:03:30.675Z,56.83
2023-08-25T21:05:57.759Z,57.12
2023-08-25T21:08:24.492Z,57.47
2023-08-25T21:10:52.480Z,57.39
2023-08-25T21:13:20.076Z,57.36
2023-08-25T21:15:50.838Z,56.81
2023-08-25T21:18:17.719Z,56.72
2023-08-25T21:20:46.922Z,57.35
2023-08-25T21:23:15.793Z,56.82
2023-08-25T21:25:49.367Z,57.38
2023-08-25T21:28:16.103Z,57.86
2023-08-25T21:30:42.899Z,57.05
2023-08-25T21:33:09.618Z,57.53
2023-08-25T21:35:36.380Z,57.67
2023-08-25T21:38:03.162Z,57.63
2023-08-25T21:40:29.882Z,57.55
2023-08-25T21:42:57.091Z,57.95
2023-08-25T21:45:24.454Z,58.10
2023-08-25T21:47:51.227Z,58.49
2023-08-25T21:50:18.121Z,58.04
2023-08-25T21:52:44.837Z,58.32
2023-08-25T21:55:12.036Z,58.27
2023-08-25T21:57:38.734Z,57.90
2023-08-25T22:00:09.938Z,57.40
2023-08-25T22:02:36.652Z,57.63
2023-08-25T22:05:05.342Z,57.69
2023-08-25T22:07:32.172Z,58.29
2023-08-25T22:09:58.884Z,59.25
2023-08-25T22:12:25.600Z,58.58
2023-08-25T22:14:52.943Z,59.75
2023-08-25T22:17:19.834Z,59.15
2023-08-25T22:19:56.664Z,59.16
2023-08-25T22:22:31.437Z,59.23
2023-08-25T22:24:58.645Z,60.27
2023-08-25T22:27:25.379Z,60.34
2023-08-25T22:29:52.121Z,59.73
2023-08-25T22:34:14.714Z,59.95
2023-08-25T22:35:06.609Z,59.94
2023-08-25T22:37:34.337Z,59.85
2023-08-25T22:40:01.423Z,59.62
2023-08-25T22:42:28.154Z,59.66
2023-08-25T22:44:54.846Z,60.06
2023-08-25T22:47:21.577Z,60.42
2023-08-25T22:49:49.121Z,61.44
2023-08-25T22:52:15.890Z,60.35
2023-08-25T22:54:42.573Z,59.83
2023-08-25T22:57:09.378Z,60.25
2023-08-25T22:59:41.733Z,60.99
2023-08-25T23:02:08.697Z,60.98
2023-08-25T23:04:35.541Z,60.46
2023-08-25T23:07:02.240Z,60.51
2023-08-25T23:09:29.029Z,60.37
2023-08-25T23:11:55.736Z,60.26
2023-08-25T23:14:22.478Z,60.17
2023-08-25T23:16:49.168Z,60.02
2023-08-25T23:19:16.569Z,60.85
2023-08-25T23:21:43.402Z,61.31
2023-08-25T23:24:10.540Z,61.11
2023-08-25T23:26:37.379Z,60.82
2023-08-25T23:29:04.072Z,60.80
2023-08-25T23:31:30.940Z,60.61
2023-08-25T23:33:57.679Z,60.52
2023-08-25T23:36:24.405Z,60.57
2023-08-25T23:38:51.775Z,60.89
2023-08-25T23:41:18.496Z,61.07
2023-08-25T23:43:45.234Z,61.05
2023-08-25T23:46:11.985Z,60.58
2023-08-25T23:48:38.704Z,60.93
2023-08-25T23:51:05.471Z,60.73
2023-08-25T23:53:32.182Z,60.23
2023-08-25T23:55:59.018Z,60.84
2023-08-25T23:58:26.382Z,60.49
